createdAt,value
2022-10-13T00:00:44.195Z,10.04
2022-10-13T00:01:44.127Z,9.99
2022-10-13T00:02:44.125Z,9.99
2022-10-13T00:03:44.104Z,9.98
2022-10-13T00:04:44.112Z,9.92
2022-10-13T00:05:44.079Z,10.02
2022-10-13T00:06:44.064Z,10.05
2022-10-13T00:07:44.081Z,10.02
2022-10-13T00:08:44.053Z,10.02
2022-10-13T00:09:44.035Z,9.98
2022-10-13T00:10:44.023Z,10.01
2022-10-13T00:11:44.010Z,9.98
2022-10-13T00:12:44.003Z,10.04
2022-10-13T00:13:44.056Z,9.99
2022-10-13T00:14:43.990Z,10.09
2022-10-13T00:15:43.968Z,10.12
2022-10-13T00:16:43.975Z,10.04
2022-10-13T00:17:43.950Z,10.12
2022-10-13T00:18:43.947Z,10.05
2022-10-13T00:19:43.924Z,9.99
2022-10-13T00:20:43.913Z,10.02
2022-10-13T00:21:43.902Z,10.13
2022-10-13T00:22:43.888Z,10.15
2022-10-13T00:23:43.887Z,10.12
2022-10-13T00:24:43.869Z,10.09
2022-10-13T00:25:43.861Z,9.99
2022-10-13T00:26:43.866Z,9.98
2022-10-13T00:27:43.829Z,9.99
2022-10-13T00:28:46.344Z,10.05
2022-10-13T00:29:44.828Z,10.01
2022-10-13T00:30:43.807Z,10.04
2022-10-13T00:31:43.804Z,10.09
2022-10-13T00:32:43.796Z,10.02
2022-10-13T00:33:43.775Z,9.99
2022-10-13T00:34:43.760Z,9.94
2022-10-13T00:35:43.745Z,9.98
2022-10-13T00:36:43.759Z,9.94
2022-10-13T00:37:43.725Z,9.95
2022-10-13T00:38:43.731Z,9.94
2022-10-13T00:39:43.721Z,9.91
2022-10-13T00:40:43.690Z,9.92
2022-10-13T00:41:43.686Z,9.84
2022-10-13T00:42:43.671Z,9.89
2022-10-13T00:43:43.682Z,9.87
2022-10-13T00:44:43.647Z,9.86
2022-10-13T00:45:43.641Z,9.83
2022-10-13T00:46:43.626Z,9.82
2022-10-13T00:47:43.632Z,9.79
2022-10-13T00:48:43.744Z,9.76
2022-10-13T00:49:43.602Z,9.74
2022-10-13T00:50:43.578Z,9.79
2022-10-13T00:51:43.566Z,9.80
2022-10-13T00:52:43.557Z,9.76
2022-10-13T00:53:43.576Z,9.68
2022-10-13T00:54:43.544Z,9.68
2022-10-13T00:55:43.523Z,9.68
2022-10-13T00:56:43.516Z,9.65
2022-10-13T00:57:43.513Z,9.72
2022-10-13T00:58:43.505Z,9.68
2022-10-13T00:59:43.479Z,9.62
2022-10-13T01:00:43.589Z,9.66
2022-10-13T01:01:43.470Z,9.66
2022-10-13T01:02:43.447Z,9.73
2022-10-13T01:03:43.438Z,9.62
2022-10-13T01:04:43.445Z,9.61
2022-10-13T01:05:43.412Z,9.61
2022-10-13T01:06:43.403Z,9.61
2022-10-13T01:07:43.392Z,9.62
2022-10-13T01:08:43.400Z,9.73
2022-10-13T01:09:43.360Z,9.66
2022-10-13T01:10:43.367Z,9.68
2022-10-13T01:11:43.355Z,9.73
2022-10-13T01:12:43.337Z,9.68
2022-10-13T01:13:43.341Z,9.83
2022-10-13T01:14:43.322Z,9.76
2022-10-13T01:15:43.304Z,9.84
2022-10-13T01:16:43.313Z,9.92
2022-10-13T01:17:43.296Z,9.87
2022-10-13T01:18:43.293Z,9.84
2022-10-13T01:19:43.275Z,9.94
2022-10-13T01:20:43.266Z,9.95
2022-10-13T01:21:43.246Z,9.97
2022-10-13T01:22:43.223Z,10.02
2022-10-13T01:23:43.211Z,9.97
2022-10-13T01:24:43.237Z,10.09
2022-10-13T01:25:43.190Z,10.09
2022-10-13T01:26:43.183Z,10.12
2022-10-13T01:27:43.173Z,10.12
2022-10-13T01:28:43.225Z,10.23
2022-10-13T01:29:43.185Z,10.16
2022-10-13T01:30:43.136Z,10.19
2022-10-13T01:31:43.123Z,10.15
2022-10-13T01:32:43.137Z,10.15
2022-10-13T01:33:43.124Z,10.17
2022-10-13T01:34:43.104Z,10.28
2022-10-13T01:35:43.081Z,10.17
2022-10-13T01:36:43.089Z,10.20
2022-10-13T01:37:43.056Z,10.28
2022-10-13T01:38:43.066Z,10.34
2022-10-13T01:39:43.047Z,10.37
2022-10-13T01:40:43.033Z,10.40
2022-10-13T01:41:43.015Z,10.38
2022-10-13T01:42:43.002Z,10.38
2022-10-13T01:43:42.997Z,10.35
2022-10-13T01:44:43.013Z,10.38
2022-10-13T01:45:42.967Z,10.41
2022-10-13T01:46:42.964Z,10.42
2022-10-13T01:47:42.983Z,10.46
2022-10-13T01:48:42.945Z,10.48
2022-10-13T01:49:42.931Z,10.49
2022-10-13T01:50:42.920Z,10.54
2022-10-13T01:51:42.908Z,10.48
2022-10-13T01:52:42.909Z,10.53
2022-10-13T01:53:42.883Z,10.54
2022-10-13T01:54:42.882Z,10.54
2022-10-13T01:55:42.883Z,10.67
2022-10-13T01:56:42.867Z,10.75
2022-10-13T01:57:42.842Z,10.71
2022-10-13T01:58:42.829Z,10.64
2022-10-13T01:59:42.836Z,10.74
2022-10-13T02:00:42.855Z,10.75
2022-10-13T02:01:42.788Z,10.75
2022-10-13T02:02:42.794Z,10.81
2022-10-13T02:03:42.780Z,10.78
2022-10-13T02:04:42.767Z,10.75
2022-10-13T02:05:42.770Z,10.72
2022-10-13T02:06:42.740Z,10.81
2022-10-13T02:07:42.733Z,10.75
2022-10-13T02:08:42.741Z,10.86
2022-10-13T02:09:42.719Z,10.78
2022-10-13T02:10:42.691Z,10.82
2022-10-13T02:11:42.694Z,10.78
2022-10-13T02:12:42.673Z,10.90
2022-10-13T02:13:42.658Z,10.84
2022-10-13T02:14:42.696Z,10.92
2022-10-13T02:15:42.661Z,10.81
2022-10-13T02:16:42.627Z,10.87
2022-10-13T02:17:42.609Z,10.89
2022-10-13T02:18:42.600Z,10.97
2022-10-13T02:19:42.610Z,10.89
2022-10-13T02:20:42.616Z,10.93
2022-10-13T02:21:42.570Z,10.97
2022-10-13T02:22:42.556Z,10.93
2022-10-13T02:23:42.566Z,10.92
2022-10-13T02:24:42.567Z,10.96
2022-10-13T02:25:42.522Z,11.08
2022-10-13T02:26:42.544Z,11.04
2022-10-13T02:27:42.508Z,11.07
2022-10-13T02:28:42.559Z,11.07
2022-10-13T02:29:42.480Z,11.02
2022-10-13T02:30:42.478Z,11.19
2022-10-13T02:31:42.481Z,11.08
2022-10-13T02:32:42.447Z,11.04
2022-10-13T02:33:42.475Z,11.10
2022-10-13T02:34:42.428Z,11.05
2022-10-13T02:35:42.424Z,11.08
2022-10-13T02:36:42.406Z,11.11
2022-10-13T02:37:42.408Z,11.17
2022-10-13T02:38:42.385Z,11.12
2022-10-13T02:39:42.403Z,11.11
2022-10-13T02:40:42.382Z,11.11
2022-10-13T02:41:42.361Z,11.25
2022-10-13T02:42:42.354Z,11.22
2022-10-13T02:43:42.345Z,11.14
2022-10-13T02:44:42.319Z,11.25
2022-10-13T02:45:42.300Z,11.23
2022-10-13T02:46:42.303Z,11.19
2022-10-13T02:47:42.291Z,11.15
2022-10-13T02:48:42.272Z,11.30
2022-10-13T02:49:42.287Z,11.33
2022-10-13T02:50:42.249Z,11.32
2022-10-13T02:51:42.238Z,11.29
2022-10-13T02:52:42.249Z,11.32
2022-10-13T02:53:42.211Z,11.32
2022-10-13T02:54:42.213Z,11.36
2022-10-13T02:55:42.211Z,11.37
2022-10-13T02:56:42.205Z,11.40
2022-10-13T02:57:42.168Z,11.40
2022-10-13T02:58:42.181Z,11.43
2022-10-13T02:59:42.149Z,11.36
2022-10-13T03:00:42.338Z,11.44
2022-10-13T03:01:42.188Z,11.41
2022-10-13T03:02:42.131Z,11.44
2022-10-13T03:03:42.113Z,11.43
2022-10-13T03:04:42.113Z,11.41
2022-10-13T03:05:42.084Z,11.41
2022-10-13T03:06:42.110Z,11.41
2022-10-13T03:07:42.058Z,11.44
2022-10-13T03:08:42.062Z,11.36
2022-10-13T03:09:42.038Z,11.40
2022-10-13T03:10:42.033Z,11.43
2022-10-13T03:11:42.017Z,11.45
2022-10-13T03:12:42.119Z,11.45
2022-10-13T03:13:42.023Z,11.45
2022-10-13T03:14:41.991Z,11.37
2022-10-13T03:15:41.968Z,11.45
2022-10-13T03:16:41.977Z,11.47
2022-10-13T03:17:41.947Z,11.48
2022-10-13T03:18:41.948Z,11.48
2022-10-13T03:19:41.941Z,11.45
2022-10-13T03:20:41.916Z,11.47
2022-10-13T03:21:41.910Z,11.43
2022-10-13T03:22:44.863Z,11.44
2022-10-13T03:23:42.911Z,11.47
2022-10-13T03:24:41.871Z,11.47
2022-10-13T03:25:41.862Z,11.41
2022-10-13T03:26:41.852Z,11.51
2022-10-13T03:27:41.846Z,11.47
2022-10-13T03:28:41.979Z,11.47
2022-10-13T03:29:41.823Z,11.50
2022-10-13T03:30:41.832Z,11.51
2022-10-13T03:31:41.821Z,11.48
2022-10-13T03:32:41.782Z,11.55
2022-10-13T03:33:41.781Z,11.62
2022-10-13T03:34:41.762Z,11.48
2022-10-13T03:35:41.762Z,11.60
2022-10-13T03:36:41.737Z,11.60
2022-10-13T03:37:41.722Z,11.52
2022-10-13T03:38:41.734Z,11.63
2022-10-13T03:39:41.711Z,11.59
2022-10-13T03:40:41.729Z,11.62
2022-10-13T03:41:41.698Z,11.59
2022-10-13T03:42:41.672Z,11.62
2022-10-13T03:43:41.672Z,11.59
2022-10-13T03:44:41.692Z,11.60
2022-10-13T03:45:41.638Z,11.60
2022-10-13T03:46:41.641Z,11.62
2022-10-13T03:47:41.633Z,11.63
2022-10-13T03:48:41.621Z,11.65
2022-10-13T03:49:41.595Z,11.68
2022-10-13T03:50:41.596Z,11.65
2022-10-13T03:51:41.589Z,11.69
2022-10-13T03:52:41.565Z,11.66
2022-10-13T03:53:41.553Z,11.73
2022-10-13T03:54:41.541Z,11.70
2022-10-13T03:55:41.547Z,11.70
2022-10-13T03:56:41.515Z,11.70
2022-10-13T03:57:41.497Z,11.72
2022-10-13T03:58:41.491Z,11.73
2022-10-13T03:59:41.475Z,11.75
2022-10-13T04:00:41.593Z,11.68
2022-10-13T04:01:41.515Z,11.66
2022-10-13T04:02:41.461Z,11.72
2022-10-13T04:03:41.433Z,11.66
2022-10-13T04:04:41.426Z,11.66
2022-10-13T04:05:41.432Z,11.68
2022-10-13T04:06:41.415Z,11.70
2022-10-13T04:07:41.395Z,11.75
2022-10-13T04:08:41.388Z,11.69
2022-10-13T04:09:41.385Z,11.69
2022-10-13T04:10:41.370Z,11.63
2022-10-13T04:11:41.360Z,11.59
2022-10-13T04:12:41.336Z,11.66
2022-10-13T04:13:41.346Z,11.60
2022-10-13T04:14:41.309Z,11.59
2022-10-13T04:15:41.322Z,11.66
2022-10-13T04:16:41.394Z,11.55
2022-10-13T04:17:41.285Z,11.55
2022-10-13T04:18:44.625Z,11.54
2022-10-13T04:19:41.268Z,11.51
2022-10-13T04:20:41.250Z,11.60
2022-10-13T04:21:41.254Z,11.55
2022-10-13T04:22:41.228Z,11.51
2022-10-13T04:23:41.220Z,11.50
2022-10-13T04:24:41.198Z,11.54
2022-10-13T04:25:41.192Z,11.65
2022-10-13T04:26:41.193Z,11.54
2022-10-13T04:27:41.191Z,11.54
2022-10-13T04:28:41.211Z,11.51
2022-10-13T04:29:41.145Z,11.50
2022-10-13T04:30:43.709Z,11.60
2022-10-13T04:31:42.147Z,11.60
2022-10-13T04:32:41.136Z,11.50
2022-10-13T04:33:41.111Z,11.60
2022-10-13T04:34:41.086Z,11.57
2022-10-13T04:35:41.080Z,11.60
2022-10-13T04:36:41.083Z,11.55
2022-10-13T04:37:44.972Z,11.57
2022-10-13T04:38:41.059Z,11.62
2022-10-13T04:39:41.040Z,11.69
2022-10-13T04:40:41.027Z,11.63
2022-10-13T04:41:41.043Z,11.69
2022-10-13T04:42:41.000Z,11.62
2022-10-13T04:43:41.014Z,11.68
2022-10-13T04:44:40.992Z,11.57
2022-10-13T04:45:40.963Z,11.68
2022-10-13T04:46:40.971Z,11.70
2022-10-13T04:47:40.961Z,11.73
2022-10-13T04:48:40.957Z,11.66
2022-10-13T04:49:40.925Z,11.66
2022-10-13T04:50:40.940Z,11.75
2022-10-13T04:51:40.907Z,11.70
2022-10-13T04:52:40.895Z,11.73
2022-10-13T04:53:40.892Z,11.72
2022-10-13T04:54:40.882Z,11.72
2022-10-13T04:55:40.872Z,11.70
2022-10-13T04:56:40.837Z,11.77
2022-10-13T04:57:40.852Z,11.78
2022-10-13T04:58:40.844Z,11.75
2022-10-13T04:59:40.806Z,11.80
2022-10-13T05:00:40.859Z,11.75
2022-10-13T05:01:40.794Z,11.83
2022-10-13T05:02:40.778Z,11.87
2022-10-13T05:03:40.774Z,11.77
2022-10-13T05:04:40.779Z,11.77
2022-10-13T05:05:40.747Z,11.77
2022-10-13T05:06:58.988Z,11.81
2022-10-13T05:07:41.718Z,11.75
2022-10-13T05:08:40.718Z,11.77
2022-10-13T05:09:40.696Z,11.80
2022-10-13T05:10:40.700Z,11.81
2022-10-13T05:11:40.685Z,11.75
2022-10-13T05:12:40.677Z,11.81
2022-10-13T05:13:40.681Z,11.78
2022-10-13T05:14:40.642Z,11.84
2022-10-13T05:15:40.629Z,11.84
2022-10-13T05:16:40.627Z,11.75
2022-10-13T05:17:40.608Z,11.78
2022-10-13T05:18:40.618Z,11.87
2022-10-13T05:19:40.592Z,11.84
2022-10-13T05:20:40.596Z,11.86
2022-10-13T05:21:40.563Z,11.83
2022-10-13T05:22:40.568Z,11.86
2022-10-13T05:23:40.608Z,11.87
2022-10-13T05:24:40.550Z,11.86
2022-10-13T05:25:40.525Z,11.86
2022-10-13T05:26:40.505Z,11.90
2022-10-13T05:27:40.492Z,11.91
2022-10-13T05:28:40.578Z,11.94
2022-10-13T05:29:40.491Z,11.99
2022-10-13T05:30:40.460Z,11.94
2022-10-13T05:31:40.452Z,11.86
2022-10-13T05:32:40.442Z,11.81
2022-10-13T05:33:40.428Z,11.90
2022-10-13T05:34:40.427Z,11.86
2022-10-13T05:35:40.409Z,11.86
2022-10-13T05:36:40.410Z,12.02
2022-10-13T05:37:40.383Z,11.95
2022-10-13T05:38:40.385Z,11.99
2022-10-13T05:39:40.372Z,12.02
2022-10-13T05:40:40.350Z,12.04
2022-10-13T05:41:40.372Z,12.00
2022-10-13T05:42:40.360Z,11.99
2022-10-13T05:43:40.320Z,12.04
2022-10-13T05:44:40.320Z,11.94
2022-10-13T05:45:40.328Z,12.07
2022-10-13T05:46:40.289Z,12.00
2022-10-13T05:47:40.298Z,11.97
2022-10-13T05:48:40.256Z,12.03
2022-10-13T05:49:40.250Z,11.94
2022-10-13T05:50:40.289Z,12.04
2022-10-13T05:51:40.237Z,12.00
2022-10-13T05:52:40.252Z,11.97
2022-10-13T05:53:40.207Z,12.07
2022-10-13T05:54:40.245Z,11.95
2022-10-13T05:55:40.190Z,12.06
2022-10-13T05:56:40.175Z,12.09
2022-10-13T05:57:40.162Z,12.06
2022-10-13T05:58:40.169Z,12.09
2022-10-13T05:59:40.138Z,12.04
2022-10-13T06:00:40.178Z,12.03
2022-10-13T06:01:40.151Z,12.06
2022-10-13T06:02:40.108Z,12.09
2022-10-13T06:03:40.099Z,12.02
2022-10-13T06:04:40.108Z,12.03
2022-10-13T06:05:40.085Z,12.04
2022-10-13T06:06:40.056Z,12.06
2022-10-13T06:07:40.048Z,12.03
2022-10-13T06:08:40.064Z,12.04
2022-10-13T06:09:40.031Z,12.09
2022-10-13T06:10:40.032Z,12.06
2022-10-13T06:11:40.007Z,12.06
2022-10-13T06:12:39.988Z,12.07
2022-10-13T06:13:40.012Z,12.10
2022-10-13T06:14:39.993Z,12.17
2022-10-13T06:15:39.993Z,12.12
2022-10-13T06:16:39.945Z,12.09
2022-10-13T06:17:39.954Z,12.20
2022-10-13T06:18:39.930Z,12.04
2022-10-13T06:19:39.914Z,12.21
2022-10-13T06:20:39.922Z,12.15
2022-10-13T06:21:39.915Z,12.12
2022-10-13T06:22:39.879Z,12.13
2022-10-13T06:23:39.919Z,12.10
2022-10-13T06:24:39.876Z,12.13
2022-10-13T06:25:39.861Z,12.13
2022-10-13T06:26:39.834Z,12.21
2022-10-13T06:27:39.824Z,12.24
2022-10-13T06:28:39.862Z,12.22
2022-10-13T06:29:39.802Z,12.24
2022-10-13T06:30:39.787Z,12.22
2022-10-13T06:31:39.791Z,12.18
2022-10-13T06:32:39.774Z,12.25
2022-10-13T06:33:39.760Z,12.22
2022-10-13T06:34:39.754Z,12.24
2022-10-13T06:35:39.751Z,12.27
2022-10-13T06:36:39.732Z,12.24
2022-10-13T06:37:39.713Z,12.32
2022-10-13T06:38:39.721Z,12.25
2022-10-13T06:39:39.693Z,12.27
2022-10-13T06:40:39.707Z,12.35
2022-10-13T06:41:39.679Z,12.28
2022-10-13T06:42:39.659Z,12.31
2022-10-13T06:43:40.646Z,12.28
2022-10-13T06:44:39.632Z,12.35
2022-10-13T06:45:39.627Z,12.32
2022-10-13T06:46:39.620Z,12.37
2022-10-13T06:47:39.622Z,12.39
2022-10-13T06:48:39.593Z,12.36
2022-10-13T06:49:39.587Z,12.40
2022-10-13T06:50:42.917Z,12.32
2022-10-13T06:51:39.590Z,12.31
2022-10-13T06:52:39.543Z,12.31
2022-10-13T06:53:39.552Z,12.46
2022-10-13T06:54:39.532Z,12.42
2022-10-13T06:55:39.514Z,12.50
2022-10-13T06:56:39.593Z,12.43
2022-10-13T06:57:39.506Z,12.45
2022-10-13T06:58:39.484Z,12.46
2022-10-13T06:59:39.480Z,12.43
2022-10-13T07:00:39.496Z,12.47
2022-10-13T07:01:41.708Z,12.47
2022-10-13T07:02:39.448Z,12.49
2022-10-13T07:03:39.424Z,12.42
2022-10-13T07:04:39.419Z,12.46
2022-10-13T07:05:39.402Z,12.49
2022-10-13T07:06:39.420Z,12.49
2022-10-13T07:07:39.401Z,12.49
2022-10-13T07:08:39.383Z,12.45
2022-10-13T07:09:39.359Z,12.47
2022-10-13T07:10:39.341Z,12.43
2022-10-13T07:11:39.361Z,12.53
2022-10-13T07:12:39.347Z,12.46
2022-10-13T07:13:43.540Z,12.50
2022-10-13T07:14:43.056Z,12.61
2022-10-13T07:15:39.291Z,12.57
2022-10-13T07:16:39.287Z,12.49
2022-10-13T07:17:39.277Z,12.55
2022-10-13T07:18:39.268Z,12.58
2022-10-13T07:19:39.250Z,12.60
2022-10-13T07:20:39.252Z,12.64
2022-10-13T07:21:39.222Z,12.60
2022-10-13T07:22:39.237Z,12.68
2022-10-13T07:23:39.221Z,12.67
2022-10-13T07:24:39.306Z,12.76
2022-10-13T07:25:39.182Z,12.79
2022-10-13T07:26:39.170Z,12.75
2022-10-13T07:27:39.153Z,12.85
2022-10-13T07:28:39.264Z,12.86
2022-10-13T07:29:39.136Z,12.94
2022-10-13T07:30:39.158Z,13.00
2022-10-13T07:31:39.123Z,13.16
2022-10-13T07:32:39.095Z,13.11
2022-10-13T07:33:39.090Z,13.13
2022-10-13T07:34:39.108Z,13.25
2022-10-13T07:35:39.078Z,13.19
2022-10-13T07:36:39.049Z,13.20
2022-10-13T07:37:39.046Z,13.19
2022-10-13T07:38:39.039Z,13.20
2022-10-13T07:39:39.019Z,13.20
2022-10-13T07:40:39.053Z,13.31
2022-10-13T07:41:39.009Z,13.33
2022-10-13T07:42:39.021Z,13.30
2022-10-13T07:43:38.974Z,13.23
2022-10-13T07:44:39.005Z,13.11
2022-10-13T07:45:38.963Z,13.27
2022-10-13T07:46:38.961Z,13.18
2022-10-13T07:47:38.952Z,13.25
2022-10-13T07:48:38.921Z,13.20
2022-10-13T07:49:38.905Z,13.19
2022-10-13T07:50:38.892Z,13.20
2022-10-13T07:51:38.908Z,13.22
2022-10-13T07:52:38.888Z,13.27
2022-10-13T07:53:38.866Z,13.33
2022-10-13T07:54:38.856Z,13.31
2022-10-13T07:55:38.850Z,13.25
2022-10-13T07:56:38.847Z,13.31
2022-10-13T07:57:38.833Z,13.35
2022-10-13T07:58:38.819Z,13.30
2022-10-13T07:59:38.797Z,13.31
2022-10-13T08:00:38.901Z,13.38
2022-10-13T08:01:38.842Z,13.31
2022-10-13T08:02:38.771Z,13.41
2022-10-13T08:03:40.258Z,13.38
2022-10-13T08:04:38.769Z,13.38
2022-10-13T08:05:38.732Z,13.38
2022-10-13T08:07:38.712Z,13.42
2022-10-13T08:08:38.721Z,13.39
2022-10-13T08:09:38.688Z,13.39
2022-10-13T08:10:38.692Z,13.47
2022-10-13T08:11:38.666Z,13.46
2022-10-13T08:12:38.671Z,13.49
2022-10-13T08:13:38.646Z,13.49
2022-10-13T08:14:38.741Z,13.49
2022-10-13T08:15:38.624Z,13.52
2022-10-13T08:16:38.636Z,13.52
2022-10-13T08:17:38.616Z,13.46
2022-10-13T08:18:38.616Z,13.42
2022-10-13T08:19:38.604Z,13.42
2022-10-13T08:20:43.324Z,13.39
2022-10-13T08:21:57.769Z,13.49
2022-10-13T08:22:39.549Z,13.54
2022-10-13T08:23:38.547Z,13.56
2022-10-13T08:24:38.516Z,13.53
2022-10-13T08:25:38.507Z,13.47
2022-10-13T08:26:38.503Z,13.53
2022-10-13T08:27:50.606Z,13.53
2022-10-13T08:28:40.919Z,13.53
2022-10-13T08:29:38.552Z,13.53
2022-10-13T08:30:38.601Z,13.63
2022-10-13T08:31:38.635Z,13.57
2022-10-13T08:32:38.451Z,13.54
2022-10-13T08:33:38.441Z,13.52
2022-10-13T08:34:38.417Z,13.53
2022-10-13T08:35:38.405Z,13.59
2022-10-13T08:36:38.387Z,13.67
2022-10-13T08:37:38.371Z,13.63
2022-10-13T08:38:38.377Z,13.68
2022-10-13T08:39:38.348Z,13.68
2022-10-13T08:40:38.361Z,13.70
2022-10-13T08:41:38.356Z,13.75
2022-10-13T08:42:38.316Z,13.78
2022-10-13T08:43:49.099Z,13.78
2022-10-13T08:45:41.985Z,13.92
2022-10-13T08:46:38.276Z,13.89
2022-10-13T08:47:38.283Z,13.86
2022-10-13T08:48:38.380Z,13.95
2022-10-13T08:49:40.916Z,13.90
2022-10-13T08:50:38.226Z,13.79
2022-10-13T08:51:38.253Z,13.81
2022-10-13T08:52:38.238Z,13.78
2022-10-13T08:53:38.194Z,13.81
2022-10-13T08:54:38.210Z,13.95
2022-10-13T08:55:38.179Z,13.86
2022-10-13T08:56:38.173Z,13.89
2022-10-13T08:57:38.172Z,13.83
2022-10-13T08:58:38.180Z,13.89
2022-10-13T08:59:38.143Z,13.89
2022-10-13T09:00:38.136Z,13.81
2022-10-13T09:01:38.201Z,13.86
2022-10-13T09:02:38.119Z,13.83
2022-10-13T09:03:38.094Z,13.77
2022-10-13T09:04:38.524Z,13.81
2022-10-13T09:05:38.068Z,13.87
2022-10-13T09:06:38.049Z,13.95
2022-10-13T09:07:38.064Z,13.93
2022-10-13T09:08:38.064Z,13.92
2022-10-13T09:09:38.018Z,13.96
2022-10-13T09:10:38.027Z,13.87
2022-10-13T09:11:37.992Z,14.00
2022-10-13T09:12:38.009Z,13.99
2022-10-13T09:13:37.992Z,13.86
2022-10-13T09:14:37.966Z,13.93
2022-10-13T09:15:37.952Z,13.96
2022-10-13T09:16:37.940Z,13.87
2022-10-13T09:17:37.952Z,13.93
2022-10-13T09:18:37.943Z,13.96
2022-10-13T09:19:37.905Z,14.05
2022-10-13T09:20:37.926Z,14.08
2022-10-13T09:21:37.883Z,14.04
2022-10-13T09:22:37.906Z,14.10
2022-10-13T09:23:41.028Z,14.08
2022-10-13T09:24:37.856Z,14.03
2022-10-13T09:25:37.834Z,14.07
2022-10-13T09:26:37.868Z,14.04
2022-10-13T09:27:37.815Z,14.12
2022-10-13T09:28:37.863Z,14.18
2022-10-13T09:29:37.799Z,14.17
2022-10-13T09:30:37.783Z,14.15
2022-10-13T09:31:37.818Z,14.22
2022-10-13T09:32:37.775Z,14.33
2022-10-13T09:33:37.759Z,14.26
2022-10-13T09:34:37.747Z,14.35
2022-10-13T09:35:37.729Z,14.32
2022-10-13T09:36:37.746Z,14.35
2022-10-13T09:37:37.708Z,14.37
2022-10-13T09:38:37.721Z,14.32
2022-10-13T09:39:37.704Z,14.48
2022-10-13T09:40:37.752Z,14.45
2022-10-13T09:41:37.661Z,14.48
2022-10-13T09:42:37.648Z,14.48
2022-10-13T09:43:37.665Z,14.45
2022-10-13T09:44:37.651Z,14.48
2022-10-13T09:45:37.623Z,14.48
2022-10-13T09:46:37.611Z,14.45
2022-10-13T09:47:37.589Z,14.37
2022-10-13T09:48:37.615Z,14.37
2022-10-13T09:49:37.588Z,14.29
2022-10-13T09:50:37.561Z,14.25
2022-10-13T09:51:37.552Z,14.32
2022-10-13T09:52:37.558Z,14.25
2022-10-13T09:53:37.524Z,14.14
2022-10-13T09:54:37.514Z,14.12
2022-10-13T09:55:37.506Z,14.18
2022-10-13T09:56:37.494Z,14.17
2022-10-13T09:57:37.491Z,14.08
2022-10-13T09:58:37.518Z,14.20
2022-10-13T09:59:37.456Z,14.18
2022-10-13T10:00:37.458Z,14.10
2022-10-13T10:01:37.464Z,14.10
2022-10-13T10:02:37.429Z,14.07
2022-10-13T10:03:37.430Z,14.05
2022-10-13T10:04:37.413Z,14.03
2022-10-13T10:05:37.400Z,14.08
2022-10-13T10:06:37.380Z,14.08
2022-10-13T10:07:37.364Z,14.08
2022-10-13T10:09:01.574Z,14.08
2022-10-13T10:09:38.361Z,14.10
2022-10-13T10:10:37.362Z,14.11
2022-10-13T10:11:37.337Z,14.18
2022-10-13T10:12:37.313Z,14.17
2022-10-13T10:13:37.303Z,14.20
2022-10-13T10:14:37.297Z,14.20
2022-10-13T10:15:37.292Z,14.14
2022-10-13T10:16:37.282Z,14.22
2022-10-13T10:17:37.260Z,14.22
2022-10-13T10:18:37.245Z,14.18
2022-10-13T10:19:37.250Z,14.23
2022-10-13T10:20:37.243Z,14.23
2022-10-13T10:21:37.227Z,14.26
2022-10-13T10:22:37.207Z,14.26
2022-10-13T10:23:37.197Z,14.23
2022-10-13T10:24:37.205Z,14.12
2022-10-13T10:25:37.169Z,14.29
2022-10-13T10:26:37.155Z,14.23
2022-10-13T10:27:40.003Z,14.26
2022-10-13T10:28:38.254Z,14.30
2022-10-13T10:29:37.129Z,14.35
2022-10-13T10:30:37.112Z,14.33
2022-10-13T10:31:37.102Z,14.36
2022-10-13T10:32:37.092Z,14.29
2022-10-13T10:33:37.088Z,14.29
2022-10-13T10:34:37.079Z,14.40
2022-10-13T10:35:37.089Z,14.40
2022-10-13T10:36:37.048Z,14.50
2022-10-13T10:37:37.035Z,14.44
2022-10-13T10:38:37.043Z,14.47
2022-10-13T10:39:37.015Z,14.48
2022-10-13T10:40:37.039Z,14.62
2022-10-13T10:41:36.989Z,14.63
2022-10-13T10:42:36.995Z,14.63
2022-10-13T10:43:36.964Z,14.72
2022-10-13T10:44:36.995Z,14.69
2022-10-13T10:45:36.982Z,14.70
2022-10-13T10:46:36.958Z,14.72
2022-10-13T10:47:36.921Z,14.78
2022-10-13T10:48:36.912Z,14.86
2022-10-13T10:49:36.922Z,14.96
2022-10-13T10:50:36.902Z,15.03
2022-10-13T10:51:36.875Z,15.18
2022-10-13T10:52:36.890Z,15.35
2022-10-13T10:53:36.853Z,15.46
2022-10-13T10:54:36.850Z,15.54
2022-10-13T10:55:36.868Z,15.59
2022-10-13T10:56:36.858Z,15.58
2022-10-13T10:57:36.811Z,15.59
2022-10-13T10:58:36.823Z,15.62
2022-10-13T10:59:36.792Z,15.62
2022-10-13T11:00:36.790Z,15.65
2022-10-13T11:01:36.819Z,15.54
2022-10-13T11:02:36.757Z,15.55
2022-10-13T11:03:36.743Z,15.54
2022-10-13T11:04:36.736Z,15.57
2022-10-13T11:05:36.747Z,15.57
2022-10-13T11:06:36.720Z,15.68
2022-10-13T11:07:36.730Z,15.65
2022-10-13T11:08:36.690Z,15.55
2022-10-13T11:09:36.680Z,15.62
2022-10-13T11:10:36.668Z,15.57
2022-10-13T11:11:37.924Z,15.59
2022-10-13T11:12:36.698Z,15.58
2022-10-13T11:13:36.631Z,15.70
2022-10-13T11:14:36.630Z,15.57
2022-10-13T11:15:36.610Z,15.57
2022-10-13T11:16:36.604Z,15.68
2022-10-13T11:17:36.632Z,15.67
2022-10-13T11:18:36.610Z,15.79
2022-10-13T11:19:36.589Z,15.97
2022-10-13T11:20:36.558Z,15.88
2022-10-13T11:21:36.545Z,15.90
2022-10-13T11:22:36.603Z,16.01
2022-10-13T11:23:36.524Z,16.09
2022-10-13T11:24:36.518Z,16.21
2022-10-13T11:25:36.527Z,16.17
2022-10-13T11:26:36.501Z,16.15
2022-10-13T11:27:36.504Z,16.26
2022-10-13T11:28:36.538Z,16.24
2022-10-13T11:29:36.463Z,16.31
2022-10-13T11:30:36.476Z,16.35
2022-10-13T11:31:36.438Z,16.39
2022-10-13T11:32:36.440Z,16.33
2022-10-13T11:33:36.424Z,16.42
2022-10-13T11:34:36.404Z,16.46
2022-10-13T11:35:36.394Z,16.39
2022-10-13T11:36:36.387Z,16.42
2022-10-13T11:37:36.367Z,16.42
2022-10-13T11:38:36.383Z,16.38
2022-10-13T11:39:36.360Z,16.33
2022-10-13T11:40:36.356Z,16.38
2022-10-13T11:41:36.324Z,16.41
2022-10-13T11:42:36.335Z,16.46
2022-10-13T11:43:36.319Z,16.53
2022-10-13T11:44:36.333Z,16.64
2022-10-13T11:45:36.280Z,16.72
2022-10-13T11:46:36.273Z,16.75
2022-10-13T11:47:36.283Z,16.83
2022-10-13T11:48:36.261Z,16.96
2022-10-13T11:49:36.238Z,17.04
2022-10-13T11:50:36.237Z,17.11
2022-10-13T11:51:36.215Z,17.11
2022-10-13T11:52:36.205Z,17.29
2022-10-13T11:53:36.236Z,17.24
2022-10-13T11:54:36.187Z,17.36
2022-10-13T11:55:36.187Z,17.45
2022-10-13T11:56:39.547Z,17.52
2022-10-13T11:57:36.151Z,17.48
2022-10-13T11:58:36.137Z,17.39
2022-10-13T11:59:36.145Z,17.51
2022-10-13T12:00:36.166Z,17.38
2022-10-13T12:01:36.097Z,17.36
2022-10-13T12:02:36.135Z,17.19
2022-10-13T12:03:36.093Z,17.23
2022-10-13T12:04:36.081Z,17.12
2022-10-13T12:05:36.072Z,17.11
2022-10-13T12:06:36.049Z,17.08
2022-10-13T12:07:36.034Z,17.09
2022-10-13T12:08:36.043Z,17.02
2022-10-13T12:09:36.020Z,16.96
2022-10-13T12:10:36.028Z,16.89
2022-10-13T12:11:35.988Z,16.86
2022-10-13T12:12:35.988Z,16.81
2022-10-13T12:13:35.972Z,16.78
2022-10-13T12:15:35.948Z,16.66
2022-10-13T12:16:35.959Z,16.60
2022-10-13T12:17:35.923Z,16.56
2022-10-13T12:18:35.937Z,16.56
2022-10-13T12:19:35.900Z,16.65
2022-10-13T12:20:35.920Z,16.57
2022-10-13T12:21:35.887Z,16.66
2022-10-13T12:22:40.191Z,16.54
2022-10-13T12:23:35.891Z,16.60
2022-10-13T12:24:35.846Z,16.49
2022-10-13T12:25:35.832Z,16.46
2022-10-13T12:26:35.834Z,16.49
2022-10-13T12:27:35.836Z,16.47
2022-10-13T12:28:35.859Z,16.41
2022-10-13T12:29:37.424Z,16.49
2022-10-13T12:30:35.780Z,16.46
2022-10-13T12:31:35.761Z,16.47
2022-10-13T12:32:35.780Z,16.38
2022-10-13T12:33:35.741Z,16.41
2022-10-13T12:34:35.743Z,16.47
2022-10-13T12:35:35.747Z,16.43
2022-10-13T12:36:35.714Z,16.32
2022-10-13T12:37:35.741Z,16.33
2022-10-13T12:38:35.698Z,16.36
2022-10-13T12:39:35.690Z,16.33
2022-10-13T12:40:35.769Z,16.26
2022-10-13T12:41:35.650Z,16.29
2022-10-13T12:42:35.640Z,16.28
2022-10-13T12:43:35.655Z,16.24
2022-10-13T12:44:35.625Z,16.29
2022-10-13T12:45:35.622Z,16.24
2022-10-13T12:46:35.633Z,16.21
2022-10-13T12:47:35.586Z,16.24
2022-10-13T12:48:35.655Z,16.13
2022-10-13T12:49:35.570Z,16.09
2022-10-13T12:50:35.562Z,16.13
2022-10-13T12:51:35.547Z,16.10
2022-10-13T12:52:35.531Z,16.10
2022-10-13T12:53:35.529Z,16.09
2022-10-13T12:54:35.515Z,16.09
2022-10-13T12:55:35.502Z,16.04
2022-10-13T12:56:35.506Z,16.05
2022-10-13T12:57:35.495Z,15.98